Amante — PD7411 — position and weather

sailwx.info

Track history (hours):
 
Tides and Currents Weather Stations Pressure Air Temp Water Temp Dewpoint Dewpoint Depression Visibility Wind Speed Wind Dir Waves Ship Positions

Amante

Last reported at 2017-Oct-21 10:25 UTC. Time now 2017-Nov-21 15:49 UTC.
Position N 40°51' E 024°19'.
Warning: this ship's position is 31 days out of date.

Length 13 m.

Type: Sailing vessel. MMSI: 244110873.

Date/timePositionNaut miles runAvg speedWind from/ knotsBaromVisibWave heightAir tempDewpointWater temp
2017-Oct-21 10:25N 40°51' E 024°19'0 0.0
2017-Oct-21 10:01N 40°51' E 024°19'0 0.0
2017-Oct-21 09:25N 40°51' E 024°19'0 0.0
2017-Oct-21 08:58N 40°51' E 024°19'0 0.0
2017-Oct-21 08:28N 40°51' E 024°19'0 0.0
2017-Oct-21 07:58N 40°51' E 024°19'0 0.0
2017-Oct-21 07:28N 40°51' E 024°19'0 0.0
2017-Oct-21 06:58N 40°51' E 024°19'0 0.0
2017-Oct-21 06:28N 40°51' E 024°19'0 0.0
2017-Oct-21 05:58N 40°51' E 024°19'0 0.0
2017-Oct-21 05:28N 40°51' E 024°19'0 0.0
2017-Oct-21 04:58N 40°51' E 024°19'0 0.0
2017-Oct-21 04:28N 40°51' E 024°19'0 0.0
2017-Oct-21 03:58N 40°51' E 024°19'0 0.0
2017-Oct-21 03:28N 40°51' E 024°19'0 0.0
2017-Oct-21 02:58N 40°51' E 024°19'0 0.0
2017-Oct-21 02:28N 40°51' E 024°19'0 0.0
2017-Oct-21 01:58N 40°51' E 024°19'0 0.0
2017-Oct-21 01:28N 40°51' E 024°19'0 0.0
2017-Oct-21 00:58N 40°51' E 024°19'0 0.0
2017-Oct-21 00:25N 40°51' E 024°19'0 0.0
2017-Oct-20 23:58N 40°51' E 024°19'0 0.0
2017-Oct-20 23:28N 40°51' E 024°19'0 0.0
2017-Oct-20 22:58N 40°51' E 024°19'0 0.0
2017-Oct-20 22:28N 40°51' E 024°19'0 0.0
2017-Oct-20 21:58N 40°51' E 024°19'0 0.0
2017-Oct-20 21:28N 40°51' E 024°19'0 0.0
2017-Oct-20 20:58N 40°51' E 024°19'0 0.0
2017-Oct-20 20:28N 40°51' E 024°19'0 0.0
2017-Oct-20 19:58N 40°51' E 024°19'0 0.0
2017-Oct-20 19:28N 40°51' E 024°19'0 0.0
2017-Oct-20 18:58N 40°51' E 024°19'0 0.0
2017-Oct-20 18:28N 40°51' E 024°19'0 0.0
2017-Oct-20 17:55N 40°51' E 024°19'0 0.0
2017-Oct-20 17:25N 40°51' E 024°19'0 0.0
2017-Oct-20 16:55N 40°51' E 024°19'0 0.0
2017-Oct-20 16:28N 40°51' E 024°19'0 0.0
2017-Oct-20 15:52N 40°51' E 024°19'0 0.0
2017-Oct-20 15:28N 40°51' E 024°19'0 0.0
2017-Oct-20 14:58N 40°51' E 024°19'0 0.0
2017-Oct-20 13:58N 40°51' E 024°19'0 0.0
2017-Oct-20 13:28N 40°51' E 024°19'0 0.0
2017-Oct-20 12:58N 40°51' E 024°19'0 0.0
2017-Oct-20 12:28N 40°51' E 024°19'0 0.0
2017-Oct-20 11:58N 40°51' E 024°19'0 0.0
2017-Oct-20 11:28N 40°51' E 024°19'0 0.0
2017-Oct-20 10:58N 40°51' E 024°19'0 0.0
2017-Oct-20 09:11N 40°51' E 024°19'1 3.6
2017-Oct-20 09:00N 40°50' E 024°19'2 4.9
2017-Oct-20 08:30N 40°49' E 024°22'2 4.6
2017-Oct-20 08:00N 40°47' E 024°23'2 4.6
2017-Oct-20 07:30N 40°45' E 024°24'2 4.0
2017-Oct-20 07:00N 40°43' E 024°26'2 4.5
2017-Oct-20 06:30N 40°41' E 024°27'2 4.5
2017-Oct-20 05:58N 40°39' E 024°29'2 4.4
2017-Oct-20 05:29N 40°37' E 024°31'2 3.7
2017-Oct-20 04:54N 40°37' E 024°34'1 0.1
2017-Oct-19 15:11N 40°38' E 024°34'0 0.0
2017-Oct-19 11:02N 40°38' E 024°34'0 0.0
2017-Oct-19 10:50N 40°38' E 024°34'0 0.0
2017-Oct-19 10:26N 40°38' E 024°34'0 0.0
2017-Oct-19 09:38N 40°38' E 024°34'0 0.0
2017-Oct-19 09:14N 40°38' E 024°34'0 0.0
2017-Oct-19 08:44N 40°38' E 024°34'0 0.0
2017-Oct-19 03:41N 40°38' E 024°34'  
2017-Oct-16 10:04N 40°41' E 024°58'0 3.5
2017-Oct-16 10:00N 40°42' E 024°57'2 3.7
2017-Oct-16 09:29N 40°42' E 024°55'3 3.8
2017-Oct-16 08:50N 40°43' E 024°52'1 4.2
2017-Oct-16 08:29N 40°44' E 024°50'2 4.2
2017-Oct-16 08:00N 40°45' E 024°48'2 4.2
2017-Oct-16 07:30N 40°46' E 024°46'0 0.7
2017-Oct-16 07:00N 40°46' E 024°46'2 4.2
2017-Oct-16 06:30N 40°47' E 024°43'1 1.4
2017-Oct-16 05:59N 40°47' E 024°42'0 0.0
2017-Oct-16 05:29N 40°47' E 024°42'0 0.0
2017-Oct-16 04:59N 40°47' E 024°42'0 0.0
2017-Oct-16 04:29N 40°47' E 024°42'0 0.0
2017-Oct-16 03:59N 40°47' E 024°42'0 0.0
2017-Oct-16 03:29N 40°47' E 024°42'0 0.0
2017-Oct-16 02:59N 40°47' E 024°42'0 0.0
2017-Oct-16 02:29N 40°47' E 024°42'0 0.0
2017-Oct-16 01:59N 40°47' E 024°42'0 0.0
2017-Oct-16 01:26N 40°47' E 024°42'0 0.0
2017-Oct-16 00:59N 40°47' E 024°42'0 0.0
2017-Oct-16 00:29N 40°47' E 024°42'0 0.0
2017-Oct-15 23:59N 40°47' E 024°42'0 0.0
2017-Oct-15 23:29N 40°47' E 024°42'0 0.0
2017-Oct-15 22:59N 40°47' E 024°42'0 0.0
2017-Oct-15 22:26N 40°47' E 024°42'0 0.0
2017-Oct-15 21:56N 40°47' E 024°42'0 0.0
2017-Oct-15 21:29N 40°47' E 024°42'0 0.0
2017-Oct-15 20:59N 40°47' E 024°42'0 0.0
2017-Oct-15 20:29N 40°47' E 024°42'0 0.0
2017-Oct-15 19:59N 40°47' E 024°42'0 0.0
2017-Oct-15 19:23N 40°47' E 024°42'0 0.0
2017-Oct-15 18:56N 40°47' E 024°42'0 0.0
2017-Oct-15 18:29N 40°47' E 024°42'0 0.0
2017-Oct-15 17:59N 40°47' E 024°42'0 0.0
2017-Oct-15 17:26N 40°47' E 024°42'0 0.0
2017-Oct-15 16:59N 40°47' E 024°42'0 0.0
2017-Oct-15 16:26N 40°47' E 024°42'0 0.0
2017-Oct-15 15:59N 40°47' E 024°42'0 0.0
2017-Oct-15 15:29N 40°47' E 024°42'0 0.0
2017-Oct-15 14:59N 40°47' E 024°42'0 0.5
2017-Oct-15 13:58N 40°47' E 024°42'1 1.1
2017-Oct-15 13:30N 40°47' E 024°42'1 1.5
2017-Oct-15 12:58N 40°48' E 024°42'1 2.8
2017-Oct-15 12:30N 40°48' E 024°40'2 4.6
2017-Oct-15 12:00N 40°49' E 024°37'3 5.4
2017-Oct-15 11:30N 40°51' E 024°34'3 5.2
2017-Oct-15 11:01N 40°52' E 024°32'2 4.5
2017-Oct-15 10:31N 40°54' E 024°29'2 4.5
2017-Oct-15 10:00N 40°55' E 024°27'2 3.5
2017-Oct-15 09:30N 40°56' E 024°25'0 0.9
2017-Oct-15 08:59N 40°56' E 024°24'0 0.0
2017-Oct-15 07:50N 40°56' E 024°24'0 0.0
2017-Oct-15 07:29N 40°56' E 024°24'0 0.0
2017-Oct-15 06:17N 40°56' E 024°24'0 0.0
2017-Oct-15 05:56N 40°56' E 024°24'0 0.0
2017-Oct-15 05:26N 40°56' E 024°24'0 0.0
2017-Oct-15 04:56N 40°56' E 024°24'0 0.0
2017-Oct-15 04:29N 40°56' E 024°24'0 0.0
2017-Oct-15 04:00N 40°56' E 024°24'0 0.0
2017-Oct-15 03:30N 40°56' E 024°24'0 0.0
2017-Oct-15 03:00N 40°56' E 024°24'0 0.0
2017-Oct-15 02:30N 40°56' E 024°24'0 0.0
2017-Oct-15 02:00N 40°56' E 024°24'0 0.0
2017-Oct-15 01:30N 40°56' E 024°24'0 0.0
2017-Oct-15 01:00N 40°56' E 024°24'0 0.0
2017-Oct-15 00:30N 40°56' E 024°24'0 0.0
2017-Oct-15 00:00N 40°56' E 024°24'0 0.0
2017-Oct-14 23:30N 40°56' E 024°24'0 0.0
2017-Oct-14 22:57N 40°56' E 024°24'0 0.0
2017-Oct-14 22:30N 40°56' E 024°24'0 0.0
2017-Oct-14 21:45N 40°56' E 024°24'0 0.0
2017-Oct-14 21:30N 40°56' E 024°24'0 0.0
2017-Oct-14 21:00N 40°56' E 024°24'0 0.0
2017-Oct-14 20:15N 40°56' E 024°24'0 0.0
2017-Oct-14 19:51N 40°56' E 024°24'0 0.0
2017-Oct-14 19:30N 40°56' E 024°24'0 0.0
2017-Oct-14 19:00N 40°56' E 024°24'0 0.0
2017-Oct-14 18:30N 40°56' E 024°24'0 0.0
2017-Oct-14 18:00N 40°56' E 024°24'0 0.0
2017-Oct-14 17:27N 40°56' E 024°24'0 0.0
2017-Oct-14 16:57N 40°56' E 024°24'0 0.0
2017-Oct-14 16:30N 40°56' E 024°24'0 0.0
2017-Oct-14 16:00N 40°56' E 024°24'0 0.0
2017-Oct-14 15:30N 40°56' E 024°24'0 0.0
2017-Oct-14 15:00N 40°56' E 024°24'0 0.0
2017-Oct-14 14:18N 40°56' E 024°24'0 0.0
2017-Oct-14 14:00N 40°56' E 024°24'0 0.0
2017-Oct-14 13:30N 40°56' E 024°24'0 0.0
2017-Oct-14 13:00N 40°56' E 024°24'0 0.0
2017-Oct-14 12:30N 40°56' E 024°24'0 0.0
2017-Oct-14 12:00N 40°56' E 024°24'0 0.0
2017-Oct-14 11:30N 40°56' E 024°24'0 0.0
2017-Oct-14 10:48N 40°56' E 024°24'0 0.0
2017-Oct-14 10:25N 40°56' E 024°24'0 0.0
2017-Oct-14 09:58N 40°56' E 024°24'0 0.0
2017-Oct-14 09:28N 40°56' E 024°24'0 0.0
2017-Oct-14 09:01N 40°56' E 024°24'0 0.0
2017-Oct-14 08:22N 40°56' E 024°24'0 0.0
2017-Oct-14 08:01N 40°56' E 024°24'0 0.0
2017-Oct-14 07:28N 40°56' E 024°24'0 0.0
2017-Oct-14 06:58N 40°56' E 024°24'0 0.0
2017-Oct-14 06:28N 40°56' E 024°24'0 0.0
2017-Oct-14 05:58N 40°56' E 024°24'0 0.0
2017-Oct-14 05:19N 40°56' E 024°24'0 0.0
2017-Oct-14 04:55N 40°56' E 024°24'0 0.0
2017-Oct-14 04:28N 40°56' E 024°24'0 0.0
2017-Oct-14 03:58N 40°56' E 024°24'0 0.0
2017-Oct-14 03:28N 40°56' E 024°24'0 0.0
2017-Oct-14 02:55N 40°56' E 024°24'0 0.0
2017-Oct-14 02:25N 40°56' E 024°24'0 0.0
2017-Oct-14 01:55N 40°56' E 024°24'0 0.0
2017-Oct-14 01:25N 40°56' E 024°24'0 0.0
2017-Oct-14 00:55N 40°56' E 024°24'0 0.0
2017-Oct-14 00:25N 40°56' E 024°24'0 0.0
2017-Oct-13 23:49N 40°56' E 024°24'0 0.0
2017-Oct-13 23:25N 40°56' E 024°24'0 0.0
2017-Oct-13 22:55N 40°56' E 024°24'0 0.0
2017-Oct-13 22:19N 40°56' E 024°24'0 0.0
2017-Oct-13 21:49N 40°56' E 024°24'0 0.0
2017-Oct-13 21:28N 40°56' E 024°24'0 0.0
2017-Oct-13 20:55N 40°56' E 024°24'0 0.0
2017-Oct-13 20:25N 40°56' E 024°24'0 0.0
2017-Oct-13 19:58N 40°56' E 024°24'0 0.0
2017-Oct-13 19:25N 40°56' E 024°24'0 0.0
2017-Oct-13 18:55N 40°56' E 024°24'0 0.0
2017-Oct-13 18:28N 40°56' E 024°24'0 0.0
2017-Oct-13 17:55N 40°56' E 024°24'0 0.0
2017-Oct-13 17:28N 40°56' E 024°24'0 0.0
2017-Oct-13 16:58N 40°56' E 024°24'0 0.0
2017-Oct-13 16:28N 40°56' E 024°24'0 0.0
2017-Oct-13 15:55N 40°56' E 024°24'0 0.0
2017-Oct-13 15:25N 40°56' E 024°24'0 0.0
2017-Oct-13 14:55N 40°56' E 024°24'1 3.2
2017-Oct-13 14:30N 40°55' E 024°25'2 4.0
2017-Oct-13 14:00N 40°53' E 024°26'2 4.2
2017-Oct-13 13:30N 40°51' E 024°27'2 4.3
2017-Oct-13 13:00N 40°49' E 024°27'2 4.3
2017-Oct-13 12:30N 40°47' E 024°28'2 4.2
2017-Oct-13 12:00N 40°45' E 024°28'2 4.2
2017-Oct-13 11:30N 40°43' E 024°29'2 3.6
2017-Oct-13 11:00N 40°41' E 024°29'3 3.6
2017-Oct-13 10:02N 40°38' E 024°31'0 4.0
2017-Oct-13 10:00N 40°38' E 024°31'3 3.0
2017-Oct-13 09:08N 40°37' E 024°34'0 0.0
2017-Oct-13 05:04N 40°38' E 024°34'0 0.0
2017-Oct-13 03:46N 40°38' E 024°34'0 0.0
2017-Oct-13 03:25N 40°38' E 024°34'0 0.0
2017-Oct-12 15:46N 40°37' E 024°34'1 3.9
2017-Oct-12 15:30N 40°37' E 024°35'2 3.6
2017-Oct-12 14:59N 40°35' E 024°37'13 4.0
2017-Oct-12 11:40N 40°35' E 024°54'1 4.7
2017-Oct-12 11:27N 40°34' E 024°55'2 4.7
2017-Oct-12 10:59N 40°34' E 024°58'  
Track history (hours):
 
Tides and Currents Weather Stations Pressure Air Temp Water Temp Dewpoint Dewpoint Depression Visibility Wind Speed Wind Dir Waves Ship Positions

Amante

Last reported at 2017-Oct-21 10:25 UTC. Time now 2017-Nov-21 15:49 UTC.
Position N 40°51' E 024°19'.
Warning: this ship's position is 31 days out of date.

Length 13 m.

Type: Sailing vessel. MMSI: 244110873.

Date/timePositionNaut miles runAvg speedWind from/ knotsBaromVisibWave heightAir tempDewpointWater temp
2017-Oct-21 10:25N 40°51' E 024°19'0 0.0
2017-Oct-21 10:01N 40°51' E 024°19'0 0.0
2017-Oct-21 09:25N 40°51' E 024°19'0 0.0
2017-Oct-21 08:58N 40°51' E 024°19'0 0.0
2017-Oct-21 08:28N 40°51' E 024°19'0 0.0
2017-Oct-21 07:58N 40°51' E 024°19'0 0.0
2017-Oct-21 07:28N 40°51' E 024°19'0 0.0
2017-Oct-21 06:58N 40°51' E 024°19'0 0.0
2017-Oct-21 06:28N 40°51' E 024°19'0 0.0
2017-Oct-21 05:58N 40°51' E 024°19'0 0.0
2017-Oct-21 05:28N 40°51' E 024°19'0 0.0
2017-Oct-21 04:58N 40°51' E 024°19'0 0.0
2017-Oct-21 04:28N 40°51' E 024°19'0 0.0
2017-Oct-21 03:58N 40°51' E 024°19'0 0.0
2017-Oct-21 03:28N 40°51' E 024°19'0 0.0
2017-Oct-21 02:58N 40°51' E 024°19'0 0.0
2017-Oct-21 02:28N 40°51' E 024°19'0 0.0
2017-Oct-21 01:58N 40°51' E 024°19'0 0.0
2017-Oct-21 01:28N 40°51' E 024°19'0 0.0
2017-Oct-21 00:58N 40°51' E 024°19'0 0.0
2017-Oct-21 00:25N 40°51' E 024°19'0 0.0
2017-Oct-20 23:58N 40°51' E 024°19'0 0.0
2017-Oct-20 23:28N 40°51' E 024°19'0 0.0
2017-Oct-20 22:58N 40°51' E 024°19'0 0.0
2017-Oct-20 22:28N 40°51' E 024°19'0 0.0
2017-Oct-20 21:58N 40°51' E 024°19'0 0.0
2017-Oct-20 21:28N 40°51' E 024°19'0 0.0
2017-Oct-20 20:58N 40°51' E 024°19'0 0.0
2017-Oct-20 20:28N 40°51' E 024°19'0 0.0
2017-Oct-20 19:58N 40°51' E 024°19'0 0.0
2017-Oct-20 19:28N 40°51' E 024°19'0 0.0
2017-Oct-20 18:58N 40°51' E 024°19'0 0.0
2017-Oct-20 18:28N 40°51' E 024°19'0 0.0
2017-Oct-20 17:55N 40°51' E 024°19'0 0.0
2017-Oct-20 17:25N 40°51' E 024°19'0 0.0
2017-Oct-20 16:55N 40°51' E 024°19'0 0.0
2017-Oct-20 16:28N 40°51' E 024°19'0 0.0
2017-Oct-20 15:52N 40°51' E 024°19'0 0.0
2017-Oct-20 15:28N 40°51' E 024°19'0 0.0
2017-Oct-20 14:58N 40°51' E 024°19'0 0.0
2017-Oct-20 13:58N 40°51' E 024°19'0 0.0
2017-Oct-20 13:28N 40°51' E 024°19'0 0.0
2017-Oct-20 12:58N 40°51' E 024°19'0 0.0
2017-Oct-20 12:28N 40°51' E 024°19'0 0.0
2017-Oct-20 11:58N 40°51' E 024°19'0 0.0
2017-Oct-20 11:28N 40°51' E 024°19'0 0.0
2017-Oct-20 10:58N 40°51' E 024°19'0 0.0
2017-Oct-20 09:11N 40°51' E 024°19'1 3.6
2017-Oct-20 09:00N 40°50' E 024°19'2 4.9
2017-Oct-20 08:30N 40°49' E 024°22'2 4.6
2017-Oct-20 08:00N 40°47' E 024°23'2 4.6
2017-Oct-20 07:30N 40°45' E 024°24'2 4.0
2017-Oct-20 07:00N 40°43' E 024°26'2 4.5
2017-Oct-20 06:30N 40°41' E 024°27'2 4.5
2017-Oct-20 05:58N 40°39' E 024°29'2 4.4
2017-Oct-20 05:29N 40°37' E 024°31'2 3.7
2017-Oct-20 04:54N 40°37' E 024°34'1 0.1
2017-Oct-19 15:11N 40°38' E 024°34'0 0.0
2017-Oct-19 11:02N 40°38' E 024°34'0 0.0
2017-Oct-19 10:50N 40°38' E 024°34'0 0.0
2017-Oct-19 10:26N 40°38' E 024°34'0 0.0
2017-Oct-19 09:38N 40°38' E 024°34'0 0.0
2017-Oct-19 09:14N 40°38' E 024°34'0 0.0
2017-Oct-19 08:44N 40°38' E 024°34'0 0.0
2017-Oct-19 03:41N 40°38' E 024°34'  
2017-Oct-16 10:04N 40°41' E 024°58'0 3.5
2017-Oct-16 10:00N 40°42' E 024°57'2 3.7
2017-Oct-16 09:29N 40°42' E 024°55'3 3.8
2017-Oct-16 08:50N 40°43' E 024°52'1 4.2
2017-Oct-16 08:29N 40°44' E 024°50'2 4.2
2017-Oct-16 08:00N 40°45' E 024°48'2 4.2
2017-Oct-16 07:30N 40°46' E 024°46'0 0.7
2017-Oct-16 07:00N 40°46' E 024°46'2 4.2
2017-Oct-16 06:30N 40°47' E 024°43'1 1.4
2017-Oct-16 05:59N 40°47' E 024°42'0 0.0
2017-Oct-16 05:29N 40°47' E 024°42'0 0.0
2017-Oct-16 04:59N 40°47' E 024°42'0 0.0
2017-Oct-16 04:29N 40°47' E 024°42'0 0.0
2017-Oct-16 03:59N 40°47' E 024°42'0 0.0
2017-Oct-16 03:29N 40°47' E 024°42'0 0.0
2017-Oct-16 02:59N 40°47' E 024°42'0 0.0
2017-Oct-16 02:29N 40°47' E 024°42'0 0.0
2017-Oct-16 01:59N 40°47' E 024°42'0 0.0
2017-Oct-16 01:26N 40°47' E 024°42'0 0.0
2017-Oct-16 00:59N 40°47' E 024°42'0 0.0
2017-Oct-16 00:29N 40°47' E 024°42'0 0.0
2017-Oct-15 23:59N 40°47' E 024°42'0 0.0
2017-Oct-15 23:29N 40°47' E 024°42'0 0.0
2017-Oct-15 22:59N 40°47' E 024°42'0 0.0
2017-Oct-15 22:26N 40°47' E 024°42'0 0.0
2017-Oct-15 21:56N 40°47' E 024°42'0 0.0
2017-Oct-15 21:29N 40°47' E 024°42'0 0.0
2017-Oct-15 20:59N 40°47' E 024°42'0 0.0
2017-Oct-15 20:29N 40°47' E 024°42'0 0.0
2017-Oct-15 19:59N 40°47' E 024°42'0 0.0
2017-Oct-15 19:23N 40°47' E 024°42'0 0.0
2017-Oct-15 18:56N 40°47' E 024°42'0 0.0
2017-Oct-15 18:29N 40°47' E 024°42'0 0.0
2017-Oct-15 17:59N 40°47' E 024°42'0 0.0
2017-Oct-15 17:26N 40°47' E 024°42'0 0.0
2017-Oct-15 16:59N 40°47' E 024°42'0 0.0
2017-Oct-15 16:26N 40°47' E 024°42'0 0.0
2017-Oct-15 15:59N 40°47' E 024°42'0 0.0
2017-Oct-15 15:29N 40°47' E 024°42'0 0.0
2017-Oct-15 14:59N 40°47' E 024°42'0 0.5
2017-Oct-15 13:58N 40°47' E 024°42'1 1.1
2017-Oct-15 13:30N 40°47' E 024°42'1 1.5
2017-Oct-15 12:58N 40°48' E 024°42'1 2.8
2017-Oct-15 12:30N 40°48' E 024°40'2 4.6
2017-Oct-15 12:00N 40°49' E 024°37'3 5.4
2017-Oct-15 11:30N 40°51' E 024°34'3 5.2
2017-Oct-15 11:01N 40°52' E 024°32'2 4.5
2017-Oct-15 10:31N 40°54' E 024°29'2 4.5
2017-Oct-15 10:00N 40°55' E 024°27'2 3.5
2017-Oct-15 09:30N 40°56' E 024°25'0 0.9
2017-Oct-15 08:59N 40°56' E 024°24'0 0.0
2017-Oct-15 07:50N 40°56' E 024°24'0 0.0
2017-Oct-15 07:29N 40°56' E 024°24'0 0.0
2017-Oct-15 06:17N 40°56' E 024°24'0 0.0
2017-Oct-15 05:56N 40°56' E 024°24'0 0.0
2017-Oct-15 05:26N 40°56' E 024°24'0 0.0
2017-Oct-15 04:56N 40°56' E 024°24'0 0.0
2017-Oct-15 04:29N 40°56' E 024°24'0 0.0
2017-Oct-15 04:00N 40°56' E 024°24'0 0.0
2017-Oct-15 03:30N 40°56' E 024°24'0 0.0
2017-Oct-15 03:00N 40°56' E 024°24'0 0.0
2017-Oct-15 02:30N 40°56' E 024°24'0 0.0
2017-Oct-15 02:00N 40°56' E 024°24'0 0.0
2017-Oct-15 01:30N 40°56' E 024°24'0 0.0
2017-Oct-15 01:00N 40°56' E 024°24'0 0.0
2017-Oct-15 00:30N 40°56' E 024°24'0 0.0
2017-Oct-15 00:00N 40°56' E 024°24'0 0.0
2017-Oct-14 23:30N 40°56' E 024°24'0 0.0
2017-Oct-14 22:57N 40°56' E 024°24'0 0.0
2017-Oct-14 22:30N 40°56' E 024°24'0 0.0
2017-Oct-14 21:45N 40°56' E 024°24'0 0.0
2017-Oct-14 21:30N 40°56' E 024°24'0 0.0
2017-Oct-14 21:00N 40°56' E 024°24'0 0.0
2017-Oct-14 20:15N 40°56' E 024°24'0 0.0
2017-Oct-14 19:51N 40°56' E 024°24'0 0.0
2017-Oct-14 19:30N 40°56' E 024°24'0 0.0
2017-Oct-14 19:00N 40°56' E 024°24'0 0.0
2017-Oct-14 18:30N 40°56' E 024°24'0 0.0
2017-Oct-14 18:00N 40°56' E 024°24'0 0.0
2017-Oct-14 17:27N 40°56' E 024°24'0 0.0
2017-Oct-14 16:57N 40°56' E 024°24'0 0.0
2017-Oct-14 16:30N 40°56' E 024°24'0 0.0
2017-Oct-14 16:00N 40°56' E 024°24'0 0.0
2017-Oct-14 15:30N 40°56' E 024°24'0 0.0
2017-Oct-14 15:00N 40°56' E 024°24'0 0.0
2017-Oct-14 14:18N 40°56' E 024°24'0 0.0
2017-Oct-14 14:00N 40°56' E 024°24'0 0.0
2017-Oct-14 13:30N 40°56' E 024°24'0 0.0
2017-Oct-14 13:00N 40°56' E 024°24'0 0.0
2017-Oct-14 12:30N 40°56' E 024°24'0 0.0
2017-Oct-14 12:00N 40°56' E 024°24'0 0.0
2017-Oct-14 11:30N 40°56' E 024°24'0 0.0
2017-Oct-14 10:48N 40°56' E 024°24'0 0.0
2017-Oct-14 10:25N 40°56' E 024°24'0 0.0
2017-Oct-14 09:58N 40°56' E 024°24'0 0.0
2017-Oct-14 09:28N 40°56' E 024°24'0 0.0
2017-Oct-14 09:01N 40°56' E 024°24'0 0.0
2017-Oct-14 08:22N 40°56' E 024°24'0 0.0
2017-Oct-14 08:01N 40°56' E 024°24'0 0.0
2017-Oct-14 07:28N 40°56' E 024°24'0 0.0
2017-Oct-14 06:58N 40°56' E 024°24'0 0.0
2017-Oct-14 06:28N 40°56' E 024°24'0 0.0
2017-Oct-14 05:58N 40°56' E 024°24'0 0.0
2017-Oct-14 05:19N 40°56' E 024°24'0 0.0
2017-Oct-14 04:55N 40°56' E 024°24'0 0.0
2017-Oct-14 04:28N 40°56' E 024°24'0 0.0
2017-Oct-14 03:58N 40°56' E 024°24'0 0.0
2017-Oct-14 03:28N 40°56' E 024°24'0 0.0
2017-Oct-14 02:55N 40°56' E 024°24'0 0.0
2017-Oct-14 02:25N 40°56' E 024°24'0 0.0
2017-Oct-14 01:55N 40°56' E 024°24'0 0.0
2017-Oct-14 01:25N 40°56' E 024°24'0 0.0
2017-Oct-14 00:55N 40°56' E 024°24'0 0.0
2017-Oct-14 00:25N 40°56' E 024°24'0 0.0
2017-Oct-13 23:49N 40°56' E 024°24'0 0.0
2017-Oct-13 23:25N 40°56' E 024°24'0 0.0
2017-Oct-13 22:55N 40°56' E 024°24'0 0.0
2017-Oct-13 22:19N 40°56' E 024°24'0 0.0
2017-Oct-13 21:49N 40°56' E 024°24'0 0.0
2017-Oct-13 21:28N 40°56' E 024°24'0 0.0
2017-Oct-13 20:55N 40°56' E 024°24'0 0.0
2017-Oct-13 20:25N 40°56' E 024°24'0 0.0
2017-Oct-13 19:58N 40°56' E 024°24'0 0.0
2017-Oct-13 19:25N 40°56' E 024°24'0 0.0
2017-Oct-13 18:55N 40°56' E 024°24'0 0.0
2017-Oct-13 18:28N 40°56' E 024°24'0 0.0
2017-Oct-13 17:55N 40°56' E 024°24'0 0.0
2017-Oct-13 17:28N 40°56' E 024°24'0 0.0
2017-Oct-13 16:58N 40°56' E 024°24'0 0.0
2017-Oct-13 16:28N 40°56' E 024°24'0 0.0
2017-Oct-13 15:55N 40°56' E 024°24'0 0.0
2017-Oct-13 15:25N 40°56' E 024°24'0 0.0
2017-Oct-13 14:55N 40°56' E 024°24'1 3.2
2017-Oct-13 14:30N 40°55' E 024°25'2 4.0
2017-Oct-13 14:00N 40°53' E 024°26'2 4.2
2017-Oct-13 13:30N 40°51' E 024°27'2 4.3
2017-Oct-13 13:00N 40°49' E 024°27'2 4.3
2017-Oct-13 12:30N 40°47' E 024°28'2 4.2
2017-Oct-13 12:00N 40°45' E 024°28'2 4.2
2017-Oct-13 11:30N 40°43' E 024°29'2 3.6
2017-Oct-13 11:00N 40°41' E 024°29'3 3.6
2017-Oct-13 10:02N 40°38' E 024°31'0 4.0
2017-Oct-13 10:00N 40°38' E 024°31'3 3.0
2017-Oct-13 09:08N 40°37' E 024°34'0 0.0
2017-Oct-13 05:04N 40°38' E 024°34'0 0.0
2017-Oct-13 03:46N 40°38' E 024°34'0 0.0
2017-Oct-13 03:25N 40°38' E 024°34'0 0.0
2017-Oct-12 15:46N 40°37' E 024°34'1 3.9
2017-Oct-12 15:30N 40°37' E 024°35'2 3.6
2017-Oct-12 14:59N 40°35' E 024°37'13 4.0
2017-Oct-12 11:40N 40°35' E 024°54'1 4.7
2017-Oct-12 11:27N 40°34' E 024°55'2 4.7
2017-Oct-12 10:59N 40°34' E 024°58'  

Dump ship's entire track history